sensor_id;sensor_type;location;lat;lon;timestamp;P1;durP1;ratioP1;P2;durP2;ratioP2
39264;SDS011;42646;51.910;7.724;2023-07-16T00:02:14;2.75;;;1.48;;
39264;SDS011;42646;51.910;7.724;2023-07-16T00:04:45;3.22;;;1.58;;
39264;SDS011;42646;51.910;7.724;2023-07-16T00:07:13;3.25;;;1.70;;
39264;SDS011;42646;51.910;7.724;2023-07-16T00:09:43;3.53;;;1.60;;
39264;SDS011;42646;51.910;7.724;2023-07-16T00:12:12;3.05;;;1.60;;
39264;SDS011;42646;51.910;7.724;2023-07-16T00:14:39;3.47;;;1.60;;
39264;SDS011;42646;51.910;7.724;2023-07-16T00:17:08;3.20;;;1.60;;
39264;SDS011;42646;51.910;7.724;2023-07-16T00:19:36;3.53;;;1.60;;
39264;SDS011;42646;51.910;7.724;2023-07-16T00:22:04;3.33;;;1.80;;
39264;SDS011;42646;51.910;7.724;2023-07-16T00:24:32;3.13;;;1.75;;
39264;SDS011;42646;51.910;7.724;2023-07-16T00:27:00;3.75;;;1.90;;
39264;SDS011;42646;51.910;7.724;2023-07-16T00:29:28;4.53;;;2.22;;
39264;SDS011;42646;51.910;7.724;2023-07-16T00:31:56;3.15;;;1.80;;
39264;SDS011;42646;51.910;7.724;2023-07-16T00:34:25;4.60;;;1.83;;
39264;SDS011;42646;51.910;7.724;2023-07-16T00:36:54;5.20;;;2.00;;
39264;SDS011;42646;51.910;7.724;2023-07-16T00:39:27;3.28;;;1.60;;
39264;SDS011;42646;51.910;7.724;2023-07-16T00:41:55;3.80;;;1.70;;
39264;SDS011;42646;51.910;7.724;2023-07-16T00:44:23;3.80;;;1.88;;
39264;SDS011;42646;51.910;7.724;2023-07-16T00:46:51;3.78;;;1.90;;
39264;SDS011;42646;51.910;7.724;2023-07-16T00:49:19;4.30;;;1.92;;
39264;SDS011;42646;51.910;7.724;2023-07-16T00:51:49;4.53;;;1.95;;
39264;SDS011;42646;51.910;7.724;2023-07-16T00:54:18;4.65;;;1.90;;
39264;SDS011;42646;51.910;7.724;2023-07-16T00:56:52;3.92;;;1.90;;
39264;SDS011;42646;51.910;7.724;2023-07-16T00:59:20;3.10;;;1.80;;
39264;SDS011;42646;51.910;7.724;2023-07-16T01:01:49;3.72;;;1.90;;
39264;SDS011;42646;51.910;7.724;2023-07-16T01:04:17;4.00;;;2.20;;
39264;SDS011;42646;51.910;7.724;2023-07-16T01:06:45;3.50;;;1.75;;
39264;SDS011;42646;51.910;7.724;2023-07-16T01:09:20;3.53;;;1.98;;
39264;SDS011;42646;51.910;7.724;2023-07-16T01:11:52;4.38;;;2.17;;
39264;SDS011;42646;51.910;7.724;2023-07-16T01:14:21;3.60;;;1.90;;
39264;SDS011;42646;51.910;7.724;2023-07-16T01:16:54;4.95;;;2.05;;
39264;SDS011;42646;51.910;7.724;2023-07-16T01:19:25;4.10;;;2.00;;
39264;SDS011;42646;51.910;7.724;2023-07-16T01:21:57;3.20;;;1.80;;
39264;SDS011;42646;51.910;7.724;2023-07-16T01:24:51;4.70;;;2.00;;
39264;SDS011;42646;51.910;7.724;2023-07-16T01:27:43;3.45;;;1.90;;
39264;SDS011;42646;51.910;7.724;2023-07-16T01:30:30;4.35;;;2.00;;
39264;SDS011;42646;51.910;7.724;2023-07-16T01:32:59;3.55;;;1.85;;
39264;SDS011;42646;51.910;7.724;2023-07-16T01:35:29;4.10;;;2.15;;
39264;SDS011;42646;51.910;7.724;2023-07-16T01:37:58;5.32;;;2.10;;
39264;SDS011;42646;51.910;7.724;2023-07-16T01:40:26;4.00;;;1.92;;
39264;SDS011;42646;51.910;7.724;2023-07-16T01:42:54;3.78;;;2.00;;
39264;SDS011;42646;51.910;7.724;2023-07-16T01:45:22;3.90;;;2.00;;
39264;SDS011;42646;51.910;7.724;2023-07-16T01:47:53;4.43;;;2.20;;
39264;SDS011;42646;51.910;7.724;2023-07-16T01:50:28;4.65;;;2.10;;
39264;SDS011;42646;51.910;7.724;2023-07-16T01:53:22;4.80;;;2.20;;
39264;SDS011;42646;51.910;7.724;2023-07-16T01:55:50;4.07;;;2.10;;
39264;SDS011;42646;51.910;7.724;2023-07-16T01:58:22;4.10;;;2.22;;
39264;SDS011;42646;51.910;7.724;2023-07-16T02:00:50;3.85;;;2.00;;
39264;SDS011;42646;51.910;7.724;2023-07-16T02:03:19;3.70;;;2.17;;
39264;SDS011;42646;51.910;7.724;2023-07-16T02:05:48;4.68;;;2.25;;
39264;SDS011;42646;51.910;7.724;2023-07-16T02:08:16;4.20;;;2.08;;
39264;SDS011;42646;51.910;7.724;2023-07-16T02:10:46;4.07;;;2.10;;
39264;SDS011;42646;51.910;7.724;2023-07-16T02:13:15;5.22;;;2.38;;
39264;SDS011;42646;51.910;7.724;2023-07-16T02:15:43;5.43;;;2.25;;
39264;SDS011;42646;51.910;7.724;2023-07-16T02:18:13;4.55;;;2.25;;
39264;SDS011;42646;51.910;7.724;2023-07-16T02:20:44;3.83;;;2.10;;
39264;SDS011;42646;51.910;7.724;2023-07-16T02:23:20;3.80;;;2.13;;
39264;SDS011;42646;51.910;7.724;2023-07-16T02:25:52;4.32;;;2.53;;
39264;SDS011;42646;51.910;7.724;2023-07-16T02:28:21;4.35;;;2.35;;
39264;SDS011;42646;51.910;7.724;2023-07-16T02:30:48;4.07;;;2.25;;
39264;SDS011;42646;51.910;7.724;2023-07-16T02:33:21;4.55;;;2.28;;
39264;SDS011;42646;51.910;7.724;2023-07-16T02:35:53;4.55;;;2.28;;
39264;SDS011;42646;51.910;7.724;2023-07-16T02:38:21;4.25;;;2.42;;
39264;SDS011;42646;51.910;7.724;2023-07-16T02:40:53;5.63;;;2.30;;
39264;SDS011;42646;51.910;7.724;2023-07-16T02:43:21;4.80;;;2.50;;
39264;SDS011;42646;51.910;7.724;2023-07-16T02:45:49;4.10;;;2.15;;
39264;SDS011;42646;51.910;7.724;2023-07-16T02:48:18;4.97;;;2.10;;
39264;SDS011;42646;51.910;7.724;2023-07-16T02:50:46;4.97;;;2.58;;
39264;SDS011;42646;51.910;7.724;2023-07-16T02:53:16;4.35;;;2.40;;
39264;SDS011;42646;51.910;7.724;2023-07-16T02:55:44;4.68;;;2.60;;
39264;SDS011;42646;51.910;7.724;2023-07-16T02:58:13;4.10;;;2.40;;
39264;SDS011;42646;51.910;7.724;2023-07-16T03:01:04;4.47;;;2.70;;
39264;SDS011;42646;51.910;7.724;2023-07-16T03:03:34;4.95;;;2.75;;
39264;SDS011;42646;51.910;7.724;2023-07-16T03:06:02;5.13;;;2.85;;
39264;SDS011;42646;51.910;7.724;2023-07-16T03:08:31;4.03;;;2.67;;
39264;SDS011;42646;51.910;7.724;2023-07-16T03:11:23;4.57;;;2.47;;
39264;SDS011;42646;51.910;7.724;2023-07-16T03:13:52;4.57;;;2.60;;
39264;SDS011;42646;51.910;7.724;2023-07-16T03:16:22;5.60;;;2.85;;
39264;SDS011;42646;51.910;7.724;2023-07-16T03:18:52;4.60;;;2.75;;
39264;SDS011;42646;51.910;7.724;2023-07-16T03:21:20;5.93;;;3.00;;
39264;SDS011;42646;51.910;7.724;2023-07-16T03:23:51;5.53;;;2.70;;
39264;SDS011;42646;51.910;7.724;2023-07-16T03:26:19;5.05;;;2.85;;
39264;SDS011;42646;51.910;7.724;2023-07-16T03:29:12;5.40;;;2.75;;
39264;SDS011;42646;51.910;7.724;2023-07-16T03:31:39;6.15;;;2.80;;
39264;SDS011;42646;51.910;7.724;2023-07-16T03:34:09;6.05;;;2.88;;
39264;SDS011;42646;51.910;7.724;2023-07-16T03:36:37;4.78;;;2.70;;
39264;SDS011;42646;51.910;7.724;2023-07-16T03:39:06;7.13;;;3.08;;
39264;SDS011;42646;51.910;7.724;2023-07-16T03:41:34;5.10;;;2.65;;
39264;SDS011;42646;51.910;7.724;2023-07-16T03:44:03;5.45;;;2.83;;
39264;SDS011;42646;51.910;7.724;2023-07-16T03:46:34;4.13;;;2.58;;
39264;SDS011;42646;51.910;7.724;2023-07-16T03:49:03;4.32;;;2.60;;
39264;SDS011;42646;51.910;7.724;2023-07-16T03:51:35;5.53;;;2.55;;
39264;SDS011;42646;51.910;7.724;2023-07-16T03:54:04;5.90;;;2.60;;
39264;SDS011;42646;51.910;7.724;2023-07-16T03:56:33;5.22;;;2.47;;
39264;SDS011;42646;51.910;7.724;2023-07-16T03:59:02;4.15;;;2.30;;
39264;SDS011;42646;51.910;7.724;2023-07-16T04:01:30;5.18;;;2.50;;
39264;SDS011;42646;51.910;7.724;2023-07-16T04:03:59;6.75;;;2.80;;
39264;SDS011;42646;51.910;7.724;2023-07-16T04:09:21;4.38;;;2.50;;
39264;SDS011;42646;51.910;7.724;2023-07-16T04:11:49;5.47;;;2.33;;
39264;SDS011;42646;51.910;7.724;2023-07-16T04:14:18;4.68;;;2.30;;
39264;SDS011;42646;51.910;7.724;2023-07-16T04:16:47;4.65;;;2.35;;
39264;SDS011;42646;51.910;7.724;2023-07-16T04:19:15;5.95;;;2.40;;
39264;SDS011;42646;51.910;7.724;2023-07-16T04:21:43;4.57;;;2.22;;
39264;SDS011;42646;51.910;7.724;2023-07-16T04:24:11;4.07;;;2.00;;
39264;SDS011;42646;51.910;7.724;2023-07-16T04:26:42;4.22;;;2.05;;
39264;SDS011;42646;51.910;7.724;2023-07-16T04:29:10;4.72;;;2.00;;
39264;SDS011;42646;51.910;7.724;2023-07-16T04:31:38;4.57;;;2.15;;
39264;SDS011;42646;51.910;7.724;2023-07-16T04:34:10;5.22;;;2.10;;
39264;SDS011;42646;51.910;7.724;2023-07-16T04:36:38;5.38;;;2.28;;
39264;SDS011;42646;51.910;7.724;2023-07-16T04:39:06;5.20;;;2.00;;
39264;SDS011;42646;51.910;7.724;2023-07-16T04:41:34;4.70;;;1.92;;
39264;SDS011;42646;51.910;7.724;2023-07-16T04:44:04;4.50;;;1.98;;
39264;SDS011;42646;51.910;7.724;2023-07-16T04:46:34;4.88;;;2.08;;
39264;SDS011;42646;51.910;7.724;2023-07-16T04:49:02;5.40;;;2.28;;
39264;SDS011;42646;51.910;7.724;2023-07-16T04:51:32;4.50;;;2.30;;
39264;SDS011;42646;51.910;7.724;2023-07-16T04:53:59;4.22;;;2.30;;
39264;SDS011;42646;51.910;7.724;2023-07-16T04:56:30;5.23;;;2.17;;
39264;SDS011;42646;51.910;7.724;2023-07-16T04:58:58;5.40;;;2.40;;
39264;SDS011;42646;51.910;7.724;2023-07-16T05:01:28;3.67;;;1.98;;
39264;SDS011;42646;51.910;7.724;2023-07-16T05:03:56;4.90;;;2.20;;
39264;SDS011;42646;51.910;7.724;2023-07-16T05:06:24;6.78;;;2.22;;
39264;SDS011;42646;51.910;7.724;2023-07-16T05:08:52;5.97;;;2.28;;
39264;SDS011;42646;51.910;7.724;2023-07-16T05:11:45;6.68;;;2.33;;
39264;SDS011;42646;51.910;7.724;2023-07-16T05:14:13;7.75;;;2.80;;
39264;SDS011;42646;51.910;7.724;2023-07-16T05:16:42;6.43;;;2.30;;
39264;SDS011;42646;51.910;7.724;2023-07-16T05:19:13;5.28;;;2.35;;
39264;SDS011;42646;51.910;7.724;2023-07-16T05:21:42;7.00;;;2.60;;
39264;SDS011;42646;51.910;7.724;2023-07-16T05:24:09;4.53;;;2.38;;
39264;SDS011;42646;51.910;7.724;2023-07-16T05:26:37;6.95;;;2.90;;
39264;SDS011;42646;51.910;7.724;2023-07-16T05:29:05;7.70;;;2.75;;
39264;SDS011;42646;51.910;7.724;2023-07-16T05:31:33;6.78;;;3.20;;
39264;SDS011;42646;51.910;7.724;2023-07-16T05:34:09;6.55;;;2.88;;
39264;SDS011;42646;51.910;7.724;2023-07-16T05:36:36;9.65;;;3.60;;
39264;SDS011;42646;51.910;7.724;2023-07-16T05:39:09;7.72;;;3.08;;
39264;SDS011;42646;51.910;7.724;2023-07-16T05:41:38;4.70;;;2.55;;
39264;SDS011;42646;51.910;7.724;2023-07-16T05:44:07;5.47;;;2.70;;
39264;SDS011;42646;51.910;7.724;2023-07-16T05:46:35;6.03;;;2.70;;
39264;SDS011;42646;51.910;7.724;2023-07-16T05:49:04;4.97;;;2.85;;
39264;SDS011;42646;51.910;7.724;2023-07-16T05:51:34;6.10;;;3.30;;
39264;SDS011;42646;51.910;7.724;2023-07-16T05:54:02;7.53;;;3.30;;
39264;SDS011;42646;51.910;7.724;2023-07-16T05:56:29;6.70;;;3.22;;
39264;SDS011;42646;51.910;7.724;2023-07-16T05:58:57;6.53;;;3.35;;
39264;SDS011;42646;51.910;7.724;2023-07-16T06:01:25;6.85;;;3.15;;
39264;SDS011;42646;51.910;7.724;2023-07-16T06:03:54;7.72;;;3.00;;
39264;SDS011;42646;51.910;7.724;2023-07-16T06:06:22;6.40;;;2.70;;
39264;SDS011;42646;51.910;7.724;2023-07-16T06:08:52;8.25;;;2.95;;
39264;SDS011;42646;51.910;7.724;2023-07-16T06:11:19;5.38;;;2.83;;
39264;SDS011;42646;51.910;7.724;2023-07-16T06:13:48;6.95;;;3.35;;
39264;SDS011;42646;51.910;7.724;2023-07-16T06:16:39;7.03;;;3.08;;
39264;SDS011;42646;51.910;7.724;2023-07-16T06:19:07;7.22;;;3.03;;
39264;SDS011;42646;51.910;7.724;2023-07-16T06:21:35;8.55;;;3.13;;
39264;SDS011;42646;51.910;7.724;2023-07-16T06:24:06;7.20;;;3.40;;
39264;SDS011;42646;51.910;7.724;2023-07-16T06:26:35;7.43;;;3.10;;
39264;SDS011;42646;51.910;7.724;2023-07-16T06:29:03;7.20;;;3.28;;
39264;SDS011;42646;51.910;7.724;2023-07-16T06:31:31;9.00;;;4.20;;
39264;SDS011;42646;51.910;7.724;2023-07-16T06:33:58;6.68;;;3.30;;
39264;SDS011;42646;51.910;7.724;2023-07-16T06:36:28;6.28;;;3.20;;
39264;SDS011;42646;51.910;7.724;2023-07-16T06:38:55;9.27;;;3.20;;
39264;SDS011;42646;51.910;7.724;2023-07-16T06:41:24;7.53;;;3.20;;
39264;SDS011;42646;51.910;7.724;2023-07-16T06:43:52;6.60;;;3.20;;
39264;SDS011;42646;51.910;7.724;2023-07-16T06:46:45;6.95;;;3.83;;
39264;SDS011;42646;51.910;7.724;2023-07-16T06:49:13;6.10;;;3.00;;
39264;SDS011;42646;51.910;7.724;2023-07-16T06:51:41;7.47;;;3.00;;
39264;SDS011;42646;51.910;7.724;2023-07-16T06:54:08;6.95;;;3.05;;
39264;SDS011;42646;51.910;7.724;2023-07-16T06:56:37;6.65;;;3.00;;
39264;SDS011;42646;51.910;7.724;2023-07-16T06:59:05;7.82;;;3.08;;
39264;SDS011;42646;51.910;7.724;2023-07-16T07:01:33;5.75;;;3.03;;
39264;SDS011;42646;51.910;7.724;2023-07-16T07:04:02;8.48;;;2.97;;
39264;SDS011;42646;51.910;7.724;2023-07-16T07:06:33;6.78;;;3.53;;
39264;SDS011;42646;51.910;7.724;2023-07-16T07:11:31;7.53;;;3.85;;
39264;SDS011;42646;51.910;7.724;2023-07-16T07:14:00;6.22;;;3.40;;
39264;SDS011;42646;51.910;7.724;2023-07-16T07:16:28;6.68;;;3.10;;
39264;SDS011;42646;51.910;7.724;2023-07-16T07:18:56;5.50;;;3.33;;
39264;SDS011;42646;51.910;7.724;2023-07-16T07:21:24;8.05;;;3.60;;
39264;SDS011;42646;51.910;7.724;2023-07-16T07:23:52;6.95;;;3.10;;
39264;SDS011;42646;51.910;7.724;2023-07-16T07:26:20;8.77;;;3.97;;
39264;SDS011;42646;51.910;7.724;2023-07-16T07:28:48;7.57;;;3.75;;
39264;SDS011;42646;51.910;7.724;2023-07-16T07:31:18;7.57;;;3.45;;
39264;SDS011;42646;51.910;7.724;2023-07-16T07:33:46;8.30;;;3.60;;
39264;SDS011;42646;51.910;7.724;2023-07-16T07:36:15;9.07;;;3.97;;
39264;SDS011;42646;51.910;7.724;2023-07-16T07:38:46;9.13;;;4.10;;
39264;SDS011;42646;51.910;7.724;2023-07-16T07:41:14;8.30;;;3.67;;
39264;SDS011;42646;51.910;7.724;2023-07-16T07:43:42;6.35;;;3.55;;
39264;SDS011;42646;51.910;7.724;2023-07-16T07:46:10;5.90;;;3.22;;
39264;SDS011;42646;51.910;7.724;2023-07-16T07:48:40;8.52;;;3.50;;
39264;SDS011;42646;51.910;7.724;2023-07-16T07:51:08;6.57;;;3.70;;
39264;SDS011;42646;51.910;7.724;2023-07-16T07:53:36;7.70;;;3.67;;
39264;SDS011;42646;51.910;7.724;2023-07-16T07:56:04;7.47;;;3.40;;
39264;SDS011;42646;51.910;7.724;2023-07-16T07:58:32;9.82;;;4.22;;
39264;SDS011;42646;51.910;7.724;2023-07-16T08:01:04;8.25;;;3.58;;
39264;SDS011;42646;51.910;7.724;2023-07-16T08:03:32;8.27;;;4.13;;
39264;SDS011;42646;51.910;7.724;2023-07-16T08:06:02;7.05;;;3.55;;
39264;SDS011;42646;51.910;7.724;2023-07-16T08:08:31;9.48;;;3.70;;
39264;SDS011;42646;51.910;7.724;2023-07-16T08:11:00;7.28;;;3.45;;
39264;SDS011;42646;51.910;7.724;2023-07-16T08:13:27;7.00;;;3.80;;
39264;SDS011;42646;51.910;7.724;2023-07-16T08:15:55;7.97;;;3.63;;
39264;SDS011;42646;51.910;7.724;2023-07-16T08:18:24;7.63;;;3.20;;
39264;SDS011;42646;51.910;7.724;2023-07-16T08:20:52;6.10;;;3.45;;
39264;SDS011;42646;51.910;7.724;2023-07-16T08:23:21;7.22;;;3.50;;
39264;SDS011;42646;51.910;7.724;2023-07-16T08:25:51;7.17;;;3.83;;
39264;SDS011;42646;51.910;7.724;2023-07-16T08:28:18;5.50;;;3.15;;
39264;SDS011;42646;51.910;7.724;2023-07-16T08:30:46;5.72;;;3.30;;
39264;SDS011;42646;51.910;7.724;2023-07-16T08:33:17;8.00;;;3.50;;
39264;SDS011;42646;51.910;7.724;2023-07-16T08:35:44;7.20;;;3.63;;
39264;SDS011;42646;51.910;7.724;2023-07-16T08:38:12;10.05;;;3.53;;
39264;SDS011;42646;51.910;7.724;2023-07-16T08:40:42;8.25;;;3.42;;
39264;SDS011;42646;51.910;7.724;2023-07-16T08:43:14;5.40;;;3.40;;
39264;SDS011;42646;51.910;7.724;2023-07-16T08:45:44;6.55;;;3.67;;
39264;SDS011;42646;51.910;7.724;2023-07-16T08:48:12;6.93;;;3.00;;
39264;SDS011;42646;51.910;7.724;2023-07-16T08:50:40;8.43;;;3.60;;
39264;SDS011;42646;51.910;7.724;2023-07-16T08:53:09;7.15;;;3.38;;
39264;SDS011;42646;51.910;7.724;2023-07-16T08:55:37;6.22;;;3.10;;
39264;SDS011;42646;51.910;7.724;2023-07-16T08:58:07;6.72;;;3.17;;
39264;SDS011;42646;51.910;7.724;2023-07-16T09:00:34;6.22;;;3.05;;
39264;SDS011;42646;51.910;7.724;2023-07-16T09:03:02;5.57;;;2.72;;
39264;SDS011;42646;51.910;7.724;2023-07-16T09:05:31;6.63;;;3.28;;
39264;SDS011;42646;51.910;7.724;2023-07-16T09:08:06;7.20;;;3.30;;
39264;SDS011;42646;51.910;7.724;2023-07-16T09:10:34;5.70;;;3.28;;
39264;SDS011;42646;51.910;7.724;2023-07-16T09:13:02;6.95;;;3.40;;
39264;SDS011;42646;51.910;7.724;2023-07-16T09:15:32;6.95;;;3.35;;
39264;SDS011;42646;51.910;7.724;2023-07-16T09:18:01;5.93;;;3.10;;
39264;SDS011;42646;51.910;7.724;2023-07-16T09:20:29;6.07;;;3.08;;
39264;SDS011;42646;51.910;7.724;2023-07-16T09:22:57;5.68;;;2.83;;
39264;SDS011;42646;51.910;7.724;2023-07-16T09:25:27;5.90;;;3.30;;
39264;SDS011;42646;51.910;7.724;2023-07-16T09:27:55;6.03;;;3.17;;
39264;SDS011;42646;51.910;7.724;2023-07-16T09:30:30;6.70;;;3.28;;
39264;SDS011;42646;51.910;7.724;2023-07-16T09:33:05;6.75;;;2.97;;
39264;SDS011;42646;51.910;7.724;2023-07-16T09:35:37;7.45;;;3.42;;
39264;SDS011;42646;51.910;7.724;2023-07-16T09:38:09;7.90;;;3.25;;
39264;SDS011;42646;51.910;7.724;2023-07-16T09:40:38;7.00;;;3.45;;
39264;SDS011;42646;51.910;7.724;2023-07-16T09:43:09;6.65;;;3.40;;
39264;SDS011;42646;51.910;7.724;2023-07-16T09:45:38;5.68;;;3.17;;
39264;SDS011;42646;51.910;7.724;2023-07-16T09:48:07;6.68;;;3.47;;
39264;SDS011;42646;51.910;7.724;2023-07-16T09:50:36;6.07;;;3.25;;
39264;SDS011;42646;51.910;7.724;2023-07-16T09:53:05;8.60;;;3.55;;
39264;SDS011;42646;51.910;7.724;2023-07-16T09:55:34;6.00;;;3.30;;
39264;SDS011;42646;51.910;7.724;2023-07-16T09:58:05;5.72;;;3.22;;
39264;SDS011;42646;51.910;7.724;2023-07-16T10:00:36;11.88;;;4.32;;
39264;SDS011;42646;51.910;7.724;2023-07-16T10:03:08;6.53;;;3.60;;
39264;SDS011;42646;51.910;7.724;2023-07-16T10:05:37;10.10;;;5.38;;
39264;SDS011;42646;51.910;7.724;2023-07-16T10:08:15;8.57;;;4.40;;
39264;SDS011;42646;51.910;7.724;2023-07-16T10:10:44;6.20;;;3.35;;
39264;SDS011;42646;51.910;7.724;2023-07-16T10:13:16;7.80;;;3.97;;
39264;SDS011;42646;51.910;7.724;2023-07-16T10:15:53;7.13;;;3.88;;
39264;SDS011;42646;51.910;7.724;2023-07-16T10:18:26;6.22;;;3.40;;
39264;SDS011;42646;51.910;7.724;2023-07-16T10:21:00;6.35;;;3.63;;
39264;SDS011;42646;51.910;7.724;2023-07-16T10:23:39;8.43;;;3.40;;
39264;SDS011;42646;51.910;7.724;2023-07-16T10:26:08;6.47;;;4.13;;
39264;SDS011;42646;51.910;7.724;2023-07-16T10:28:40;5.55;;;3.50;;
39264;SDS011;42646;51.910;7.724;2023-07-16T10:31:16;7.28;;;3.42;;
39264;SDS011;42646;51.910;7.724;2023-07-16T10:33:57;6.35;;;3.00;;
39264;SDS011;42646;51.910;7.724;2023-07-16T10:36:27;7.13;;;3.60;;
39264;SDS011;42646;51.910;7.724;2023-07-16T10:38:55;5.85;;;3.40;;
39264;SDS011;42646;51.910;7.724;2023-07-16T10:41:28;5.97;;;3.10;;
39264;SDS011;42646;51.910;7.724;2023-07-16T10:43:58;6.80;;;3.13;;
39264;SDS011;42646;51.910;7.724;2023-07-16T10:46:31;8.32;;;3.00;;
39264;SDS011;42646;51.910;7.724;2023-07-16T10:49:01;6.45;;;2.97;;
39264;SDS011;42646;51.910;7.724;2023-07-16T10:51:29;6.97;;;2.90;;
39264;SDS011;42646;51.910;7.724;2023-07-16T10:53:57;6.70;;;3.03;;
39264;SDS011;42646;51.910;7.724;2023-07-16T10:56:27;7.68;;;2.85;;
39264;SDS011;42646;51.910;7.724;2023-07-16T10:58:56;5.78;;;2.85;;
39264;SDS011;42646;51.910;7.724;2023-07-16T11:01:25;5.63;;;3.08;;
39264;SDS011;42646;51.910;7.724;2023-07-16T11:03:53;8.85;;;3.20;;
39264;SDS011;42646;51.910;7.724;2023-07-16T11:06:22;5.07;;;3.00;;
39264;SDS011;42646;51.910;7.724;2023-07-16T11:08:50;7.45;;;3.10;;
39264;SDS011;42646;51.910;7.724;2023-07-16T11:11:27;6.90;;;3.13;;
39264;SDS011;42646;51.910;7.724;2023-07-16T11:13:56;7.55;;;2.88;;
39264;SDS011;42646;51.910;7.724;2023-07-16T11:16:25;5.97;;;2.80;;
39264;SDS011;42646;51.910;7.724;2023-07-16T11:18:53;5.63;;;2.65;;
39264;SDS011;42646;51.910;7.724;2023-07-16T11:21:23;8.25;;;3.83;;
39264;SDS011;42646;51.910;7.724;2023-07-16T11:23:52;9.85;;;3.92;;
39264;SDS011;42646;51.910;7.724;2023-07-16T11:26:20;5.88;;;2.95;;
39264;SDS011;42646;51.910;7.724;2023-07-16T11:28:49;5.53;;;2.80;;
39264;SDS011;42646;51.910;7.724;2023-07-16T11:31:18;5.55;;;2.80;;
39264;SDS011;42646;51.910;7.724;2023-07-16T11:36:17;5.63;;;2.80;;
39264;SDS011;42646;51.910;7.724;2023-07-16T11:38:47;5.30;;;3.03;;
39264;SDS011;42646;51.910;7.724;2023-07-16T11:41:17;5.50;;;2.80;;
39264;SDS011;42646;51.910;7.724;2023-07-16T11:43:47;7.60;;;2.97;;
39264;SDS011;42646;51.910;7.724;2023-07-16T11:46:16;6.38;;;3.50;;
39264;SDS011;42646;51.910;7.724;2023-07-16T11:48:45;12.30;;;3.88;;
39264;SDS011;42646;51.910;7.724;2023-07-16T11:51:13;5.00;;;3.05;;
39264;SDS011;42646;51.910;7.724;2023-07-16T11:53:40;4.93;;;2.70;;
39264;SDS011;42646;51.910;7.724;2023-07-16T11:56:11;9.27;;;3.20;;
39264;SDS011;42646;51.910;7.724;2023-07-16T11:58:39;8.73;;;2.92;;
39264;SDS011;42646;51.910;7.724;2023-07-16T12:01:09;7.05;;;2.80;;
39264;SDS011;42646;51.910;7.724;2023-07-16T12:03:37;5.40;;;2.80;;
39264;SDS011;42646;51.910;7.724;2023-07-16T12:06:05;6.10;;;2.60;;
39264;SDS011;42646;51.910;7.724;2023-07-16T12:08:33;5.95;;;2.70;;
39264;SDS011;42646;51.910;7.724;2023-07-16T12:11:00;9.13;;;3.25;;
39264;SDS011;42646;51.910;7.724;2023-07-16T12:13:30;5.25;;;3.10;;
39264;SDS011;42646;51.910;7.724;2023-07-16T12:15:58;5.68;;;2.80;;
39264;SDS011;42646;51.910;7.724;2023-07-16T12:18:25;5.03;;;3.08;;
39264;SDS011;42646;51.910;7.724;2023-07-16T12:20:54;5.53;;;3.03;;
39264;SDS011;42646;51.910;7.724;2023-07-16T12:23:22;7.40;;;2.83;;
39264;SDS011;42646;51.910;7.724;2023-07-16T12:25:50;5.80;;;3.03;;
39264;SDS011;42646;51.910;7.724;2023-07-16T12:28:18;6.85;;;2.80;;
39264;SDS011;42646;51.910;7.724;2023-07-16T12:30:48;5.55;;;2.90;;
39264;SDS011;42646;51.910;7.724;2023-07-16T12:33:15;5.90;;;3.20;;
39264;SDS011;42646;51.910;7.724;2023-07-16T12:35:43;6.03;;;3.03;;
39264;SDS011;42646;51.910;7.724;2023-07-16T12:38:11;5.68;;;2.80;;
39264;SDS011;42646;51.910;7.724;2023-07-16T12:40:40;5.43;;;2.88;;
39264;SDS011;42646;51.910;7.724;2023-07-16T12:43:08;8.40;;;3.03;;
39264;SDS011;42646;51.910;7.724;2023-07-16T12:45:36;15.40;;;3.22;;
39264;SDS011;42646;51.910;7.724;2023-07-16T12:48:05;7.18;;;2.90;;
39264;SDS011;42646;51.910;7.724;2023-07-16T12:50:35;4.53;;;2.53;;
39264;SDS011;42646;51.910;7.724;2023-07-16T12:53:02;6.65;;;2.90;;
39264;SDS011;42646;51.910;7.724;2023-07-16T12:55:35;6.07;;;3.35;;
39264;SDS011;42646;51.910;7.724;2023-07-16T12:58:02;5.20;;;3.00;;
39264;SDS011;42646;51.910;7.724;2023-07-16T13:00:32;6.82;;;2.80;;
39264;SDS011;42646;51.910;7.724;2023-07-16T13:03:01;5.80;;;2.85;;
39264;SDS011;42646;51.910;7.724;2023-07-16T13:05:30;5.32;;;2.90;;
39264;SDS011;42646;51.910;7.724;2023-07-16T13:07:58;6.30;;;3.00;;
39264;SDS011;42646;51.910;7.724;2023-07-16T13:10:26;5.85;;;2.88;;
39264;SDS011;42646;51.910;7.724;2023-07-16T13:12:55;7.60;;;3.47;;
39264;SDS011;42646;51.910;7.724;2023-07-16T13:15:24;7.13;;;3.33;;
39264;SDS011;42646;51.910;7.724;2023-07-16T13:17:52;5.47;;;3.10;;
39264;SDS011;42646;51.910;7.724;2023-07-16T13:20:20;5.22;;;2.85;;
39264;SDS011;42646;51.910;7.724;2023-07-16T13:22:52;5.55;;;3.03;;
39264;SDS011;42646;51.910;7.724;2023-07-16T13:25:21;4.47;;;2.65;;
39264;SDS011;42646;51.910;7.724;2023-07-16T13:27:48;4.78;;;2.90;;
39264;SDS011;42646;51.910;7.724;2023-07-16T13:30:17;4.78;;;3.00;;
39264;SDS011;42646;51.910;7.724;2023-07-16T13:32:45;4.97;;;2.63;;
39264;SDS011;42646;51.910;7.724;2023-07-16T13:35:15;4.97;;;2.93;;
39264;SDS011;42646;51.910;7.724;2023-07-16T13:37:43;5.35;;;2.80;;
39264;SDS011;42646;51.910;7.724;2023-07-16T13:40:13;5.18;;;2.65;;
39264;SDS011;42646;51.910;7.724;2023-07-16T13:42:41;7.13;;;3.38;;
39264;SDS011;42646;51.910;7.724;2023-07-16T13:45:09;5.72;;;2.97;;
39264;SDS011;42646;51.910;7.724;2023-07-16T13:47:37;5.07;;;3.03;;
39264;SDS011;42646;51.910;7.724;2023-07-16T13:50:07;4.70;;;2.75;;
39264;SDS011;42646;51.910;7.724;2023-07-16T13:52:36;5.50;;;3.08;;
39264;SDS011;42646;51.910;7.724;2023-07-16T13:55:04;5.15;;;3.08;;
39264;SDS011;42646;51.910;7.724;2023-07-16T13:57:34;5.15;;;2.80;;
39264;SDS011;42646;51.910;7.724;2023-07-16T14:00:03;5.47;;;3.40;;
39264;SDS011;42646;51.910;7.724;2023-07-16T14:02:31;6.82;;;3.08;;
39264;SDS011;42646;51.910;7.724;2023-07-16T14:05:00;6.35;;;3.10;;
39264;SDS011;42646;51.910;7.724;2023-07-16T14:07:28;7.40;;;3.22;;
39264;SDS011;42646;51.910;7.724;2023-07-16T14:09:56;4.43;;;2.70;;
39264;SDS011;42646;51.910;7.724;2023-07-16T14:12:24;7.90;;;3.28;;
39264;SDS011;42646;51.910;7.724;2023-07-16T14:14:53;5.10;;;2.90;;
39264;SDS011;42646;51.910;7.724;2023-07-16T14:17:22;5.45;;;2.80;;
39264;SDS011;42646;51.910;7.724;2023-07-16T14:19:50;5.30;;;3.17;;
39264;SDS011;42646;51.910;7.724;2023-07-16T14:22:19;5.13;;;3.00;;
39264;SDS011;42646;51.910;7.724;2023-07-16T14:24:50;5.90;;;3.30;;
39264;SDS011;42646;51.910;7.724;2023-07-16T14:27:19;5.82;;;2.88;;
39264;SDS011;42646;51.910;7.724;2023-07-16T14:29:46;5.28;;;3.00;;
39264;SDS011;42646;51.910;7.724;2023-07-16T14:32:32;5.22;;;2.97;;
39264;SDS011;42646;51.910;7.724;2023-07-16T14:35:01;3.97;;;2.50;;
39264;SDS011;42646;51.910;7.724;2023-07-16T14:37:30;5.95;;;2.80;;
39264;SDS011;42646;51.910;7.724;2023-07-16T14:39:58;5.45;;;2.90;;
39264;SDS011;42646;51.910;7.724;2023-07-16T14:42:26;6.85;;;2.97;;
39264;SDS011;42646;51.910;7.724;2023-07-16T14:44:53;5.97;;;2.95;;
39264;SDS011;42646;51.910;7.724;2023-07-16T14:47:21;5.03;;;2.70;;
39264;SDS011;42646;51.910;7.724;2023-07-16T14:49:51;5.35;;;2.90;;
39264;SDS011;42646;51.910;7.724;2023-07-16T14:52:19;8.23;;;3.40;;
39264;SDS011;42646;51.910;7.724;2023-07-16T14:54:46;5.20;;;3.03;;
39264;SDS011;42646;51.910;7.724;2023-07-16T14:57:15;4.32;;;2.58;;
39264;SDS011;42646;51.910;7.724;2023-07-16T14:59:44;5.28;;;2.70;;
39264;SDS011;42646;51.910;7.724;2023-07-16T15:02:13;4.85;;;2.92;;
39264;SDS011;42646;51.910;7.724;2023-07-16T15:04:41;6.18;;;2.78;;
39264;SDS011;42646;51.910;7.724;2023-07-16T15:07:10;5.68;;;2.92;;
39264;SDS011;42646;51.910;7.724;2023-07-16T15:09:37;5.43;;;3.30;;
39264;SDS011;42646;51.910;7.724;2023-07-16T15:12:06;4.40;;;2.60;;